Time;durP1;ratioP1;P1;durP2;ratioP2;P2;SDS_P1;SDS_P2;PMS_P1;PMS_P2;Temp;Humidity;BMP_temperature;BMP_pressure;BME280_temperature;BME280_humidity;BME280_pressure;Samples;Min_cycle;Max_cycle;Signal;HPM_P1;HPM_P2
2022/10/18 00:01:34;;;;;;;322.27;34.72;;;14.70;99.90;;;;;;5054868;28;20041;-84
2022/10/18 00:04:00;;;;;;;56.50;15.95;;;14.70;99.90;;;;;;5054501;28;20040;-84
2022/10/18 00:06:25;;;;;;;170.80;33.38;;;14.70;99.90;;;;;;5072213;28;20039;-84
2022/10/18 00:08:51;;;;;;;208.63;36.10;;;14.70;99.90;;;;;;5071710;28;20398;-84
2022/10/18 00:11:17;;;;;;;112.60;20.60;;;14.80;99.90;;;;;;5071469;28;20058;-84
2022/10/18 00:13:43;;;;;;;56.63;19.10;;;14.80;99.90;;;;;;5071763;28;20040;-84
2022/10/18 00:16:13;;;;;;;280.05;40.47;;;14.70;99.90;;;;;;5055132;28;20131;-84
2022/10/18 00:18:39;;;;;;;229.82;37.15;;;14.80;99.90;;;;;;5054892;28;20470;-84
2022/10/18 00:21:07;;;;;;;370.95;44.53;;;14.80;99.90;;;;;;5071315;28;20079;-84
2022/10/18 00:23:33;;;;;;;199.40;21.52;;;14.90;99.90;;;;;;5054919;28;20047;-84
2022/10/18 00:26:04;;;;;;;204.77;22.20;;;14.80;99.90;;;;;;5071552;28;20040;-84
2022/10/18 00:28:30;;;;;;;263.55;36.00;;;14.70;99.90;;;;;;5071514;28;20111;-84
2022/10/18 00:30:55;;;;;;;240.52;36.15;;;14.70;99.90;;;;;;5054517;28;20040;-84
2022/10/18 00:33:21;;;;;;;209.88;35.58;;;14.70;99.90;;;;;;5054746;28;20051;-84
2022/10/18 00:35:47;;;;;;;196.43;37.97;;;14.70;99.90;;;;;;5055016;28;20536;-84
2022/10/18 00:38:12;;;;;;;162.20;36.13;;;14.80;99.90;;;;;;5054741;28;20692;-84
2022/10/18 00:40:38;;;;;;;102.00;20.08;;;14.80;99.90;;;;;;5071454;28;20036;-84
2022/10/18 00:43:03;;;;;;;109.00;20.63;;;14.70;99.90;;;;;;5070982;28;20510;-83
2022/10/18 00:45:29;;;;;;;48.63;19.25;;;14.60;99.90;;;;;;5071235;28;20036;-84
2022/10/18 00:47:59;;;;;;;92.70;37.35;;;14.60;99.90;;;;;;5071387;28;20433;-83
2022/10/18 00:50:27;;;;;;;83.97;38.00;;;14.70;99.90;;;;;;5071418;28;20036;-83
2022/10/18 00:52:57;;;;;;;50.75;19.77;;;14.70;99.90;;;;;;5070981;28;20036;-83
2022/10/18 00:55:23;;;;;;;90.07;35.65;;;14.70;99.90;;;;;;5054407;28;20501;-84
2022/10/18 00:57:50;;;;;;;56.85;19.70;;;14.70;99.90;;;;;;5054352;28;20536;-84
2022/10/18 01:00:16;;;;;;;76.30;19.17;;;14.70;99.90;;;;;;5070820;28;20506;-84
2022/10/18 01:02:44;;;;;;;133.18;41.90;;;14.60;99.90;;;;;;5053897;28;20076;-84
2022/10/18 01:05:12;;;;;;;62.30;37.38;;;14.70;99.90;;;;;;5054237;28;20043;-84
2022/10/18 01:07:52;;;;;;;147.80;41.08;;;14.80;99.90;;;;;;5054042;28;20505;-85
2022/10/18 01:10:37;;;;;;;60.63;18.92;;;14.70;99.90;;;;;;5070971;28;20044;-84
2022/10/18 01:13:12;;;;;;;159.90;42.78;;;14.70;99.90;;;;;;5070727;28;20040;-84
2022/10/18 01:16:05;;;;;;;162.73;37.78;;;14.70;99.90;;;;;;5054205;28;20044;-84
2022/10/18 01:18:48;;;;;;;102.75;40.50;;;14.80;99.90;;;;;;5054207;28;20147;-84
2022/10/18 01:21:19;;;;;;;;;;;14.80;99.90;;;;;;5054087;28;20052;-84
2022/10/18 01:24:23;;;;;;;76.00;20.65;;;14.70;99.90;;;;;;5070462;28;19960;-84
2022/10/18 01:27:01;;;;;;;44.47;18.50;;;14.60;99.90;;;;;;4974015;28;20042;-84
2022/10/18 01:29:51;;;;;;;73.75;18.15;;;14.60;99.90;;;;;;4973099;28;20043;-84
2022/10/18 01:32:25;;;;;;;74.15;34.25;;;14.60;99.90;;;;;;4957498;28;20050;-84
2022/10/18 01:34:54;;;;;;;111.82;38.92;;;14.70;99.90;;;;;;4957701;28;20475;-84
2022/10/18 01:37:21;;;;;;;71.63;18.42;;;14.70;99.90;;;;;;4957861;28;20049;-83
2022/10/18 01:39:47;;;;;;;146.10;40.35;;;14.60;99.90;;;;;;4957519;28;20108;-84
2022/10/18 01:42:18;;;;;;;63.45;33.90;;;14.70;99.90;;;;;;4973705;28;20046;-84
2022/10/18 01:44:45;;;;;;;135.77;34.90;;;14.70;99.90;;;;;;4957729;28;20050;-84
2022/10/18 01:47:12;;;;;;;32.05;17.30;;;14.70;99.90;;;;;;4973807;28;20125;-84
2022/10/18 01:49:38;;;;;;;56.05;18.77;;;14.60;99.90;;;;;;4973776;28;20515;-84
2022/10/18 01:52:04;;;;;;;34.35;16.95;;;14.60;99.90;;;;;;4973038;28;20169;-84
2022/10/18 01:54:38;;;;;;;94.97;35.63;;;14.60;99.90;;;;;;4973573;28;20440;-83
2022/10/18 01:57:24;;;;;;;128.55;34.55;;;14.60;99.90;;;;;;4999584;28;20049;-84
2022/10/18 02:00:08;;;;;;;79.38;22.15;;;14.70;99.90;;;;;;5070292;28;20547;-84
2022/10/18 02:02:37;;;;;;;75.45;17.92;;;14.60;99.90;;;;;;5069817;28;20498;-84
2022/10/18 02:05:08;;;;;;;110.53;19.75;;;14.60;99.90;;;;;;5070459;28;20119;-84
2022/10/18 02:07:40;;;;;;;87.03;29.83;;;14.60;99.90;;;;;;5070350;28;20040;-84
2022/10/18 02:10:09;;;;;;;43.92;15.48;;;14.60;99.90;;;;;;5070039;28;20410;-84
2022/10/18 02:12:38;;;;;;;119.72;30.40;;;14.60;99.90;;;;;;5053124;28;20041;-84
2022/10/18 02:15:06;;;;;;;101.15;17.58;;;14.60;99.90;;;;;;5053421;28;20048;-83
2022/10/18 02:17:32;;;;;;;181.68;36.55;;;14.50;99.90;;;;;;5053629;28;20706;-84
2022/10/18 02:20:01;;;;;;;220.18;35.72;;;14.60;99.90;;;;;;5053186;28;20046;-83
2022/10/18 02:22:31;;;;;;;92.35;17.52;;;14.60;99.90;;;;;;5069516;28;20044;-84
2022/10/18 02:25:01;;;;;;;190.25;32.65;;;14.50;99.90;;;;;;5053327;28;20032;-84
2022/10/18 02:27:26;;;;;;;103.45;18.17;;;14.50;99.90;;;;;;5070126;28;20035;-84
2022/10/18 02:29:52;;;;;;;120.43;18.70;;;14.40;99.90;;;;;;5070019;28;20041;-84
2022/10/18 02:32:37;;;;;;;165.25;36.33;;;14.40;99.90;;;;;;5069955;28;20309;-84
2022/10/18 02:35:26;;;;;;;145.65;32.13;;;14.40;99.90;;;;;;5069929;28;20573;-84
2022/10/18 02:37:53;;;;;;;151.60;31.35;;;14.40;99.90;;;;;;5053445;28;20041;-84
2022/10/18 02:40:19;;;;;;;93.43;17.23;;;14.40;99.90;;;;;;5071011;28;20123;-84
2022/10/18 02:42:52;;;;;;;53.10;14.93;;;14.40;99.90;;;;;;5056548;28;20127;-84
2022/10/18 02:45:18;;;;;;;;;;;14.30;99.90;;;;;;5073878;28;20170;-84
2022/10/18 02:47:43;;;;;;;51.30;16.05;;;14.20;99.90;;;;;;5073532;28;20007;-84
2022/10/18 02:50:09;;;;;;;41.88;14.57;;;14.20;99.90;;;;;;5056696;28;20032;-84
2022/10/18 02:52:35;;;;;;;87.15;32.03;;;14.20;99.90;;;;;;5073008;28;20082;-84
2022/10/18 02:55:00;;;;;;;68.03;29.40;;;14.20;99.90;;;;;;5073290;28;20039;-84
2022/10/18 02:57:26;;;;;;;79.53;28.23;;;14.30;99.90;;;;;;5073368;28;20044;-84
2022/10/18 02:59:52;;;;;;;52.55;15.30;;;14.30;99.90;;;;;;5073221;28;20132;-84
2022/10/18 03:02:17;;;;;;;109.13;32.72;;;14.20;99.90;;;;;;5056313;28;20045;-84
2022/10/18 03:04:43;;;;;;;92.70;29.90;;;14.20;99.90;;;;;;5056534;28;20444;-84
2022/10/18 03:07:08;;;;;;;60.03;16.05;;;14.30;99.90;;;;;;5072945;28;20090;-84
2022/10/18 03:09:34;;;;;;;72.88;30.05;;;14.20;99.90;;;;;;5073144;28;20037;-84
2022/10/18 03:11:59;;;;;;;67.97;17.10;;;14.20;99.90;;;;;;5055975;28;20086;-84
2022/10/18 03:14:25;;;;;;;64.75;28.60;;;14.20;99.90;;;;;;5056356;28;20048;-84
2022/10/18 03:16:50;;;;;;;56.15;14.43;;;14.10;99.90;;;;;;5056189;28;20044;-83
2022/10/18 03:19:16;;;;;;;31.48;14.20;;;14.10;99.90;;;;;;5073009;28;20126;-84
2022/10/18 03:21:41;;;;;;;86.63;32.15;;;14.10;99.90;;;;;;5072570;28;20078;-84
2022/10/18 03:24:07;;;;;;;80.18;29.30;;;14.10;99.90;;;;;;5072691;28;20047;-84
2022/10/18 03:26:33;;;;;;;47.97;16.00;;;14.10;99.90;;;;;;5073103;28;20032;-84
2022/10/18 03:28:58;;;;;;;27.17;13.10;;;14.10;99.90;;;;;;5073009;28;20037;-84
2022/10/18 03:31:24;;;;;;;72.03;33.65;;;14.00;99.90;;;;;;5072502;28;20559;-84
2022/10/18 03:33:49;;;;;;;20.13;13.52;;;14.00;99.90;;;;;;5056252;28;20410;-84
2022/10/18 03:36:15;;;;;;;37.08;14.13;;;14.00;99.90;;;;;;5072579;28;20498;-84
2022/10/18 03:38:41;;;;;;;50.58;28.63;;;13.90;99.90;;;;;;5072332;28;20119;-84
2022/10/18 03:41:07;;;;;;;32.80;26.83;;;14.00;99.90;;;;;;5072214;28;20044;-84
2022/10/18 03:43:32;;;;;;;38.70;24.30;;;14.10;99.90;;;;;;5072402;28;20040;-84
2022/10/18 03:45:58;;;;;;;48.33;27.75;;;14.10;99.90;;;;;;5072371;28;20050;-84
2022/10/18 03:48:24;;;;;;;30.13;13.25;;;14.10;99.90;;;;;;5072421;28;20039;-83
2022/10/18 03:50:49;;;;;;;22.50;13.10;;;14.00;99.90;;;;;;5072077;28;20028;-84
2022/10/18 03:53:15;;;;;;;48.63;14.65;;;13.90;99.90;;;;;;5071235;28;20505;-84
2022/10/18 03:55:41;;;;;;;37.50;22.58;;;13.90;99.90;;;;;;5055404;28;20040;-84
2022/10/18 03:58:06;;;;;;;20.02;12.15;;;13.90;99.90;;;;;;5072152;28;20413;-84
2022/10/18 04:00:32;;;;;;;21.38;12.70;;;13.90;99.90;;;;;;5055211;28;20103;-84
2022/10/18 04:02:58;;;;;;;33.85;22.90;;;13.80;99.90;;;;;;5071798;28;20040;-83
2022/10/18 04:05:26;;;;;;;66.93;31.10;;;13.80;99.90;;;;;;5071997;28;20033;-83
2022/10/18 04:07:52;;;;;;;41.80;13.63;;;13.90;99.90;;;;;;5071708;28;20118;-84
2022/10/18 04:10:17;;;;;;;33.50;13.32;;;13.90;99.90;;;;;;5055468;28;20075;-83
2022/10/18 04:12:43;;;;;;;72.45;21.58;;;13.80;99.90;;;;;;5071559;28;20047;-84
2022/10/18 04:15:09;;;;;;;97.10;27.70;;;13.80;99.90;;;;;;5071839;28;20047;-84
2022/10/18 04:17:35;;;;;;;40.78;13.70;;;13.90;99.90;;;;;;5072022;28;20068;-84
2022/10/18 04:20:00;;;;;;;49.72;13.77;;;13.80;99.90;;;;;;5071555;28;20105;-83
2022/10/18 04:22:26;;;;;;;54.75;23.70;;;13.70;99.90;;;;;;5071097;28;20057;-84
2022/10/18 04:24:52;;;;;;;51.45;15.93;;;13.70;99.90;;;;;;5071639;28;20062;-84
2022/10/18 04:27:18;;;;;;;44.92;14.18;;;13.70;99.90;;;;;;5071834;28;20119;-83
2022/10/18 04:29:43;;;;;;;82.00;25.98;;;13.60;99.90;;;;;;5054979;28;20516;-84
2022/10/18 04:32:09;;;;;;;98.45;23.67;;;13.70;99.90;;;;;;5071225;28;20559;-84
2022/10/18 04:34:34;;;;;;;52.92;14.70;;;13.70;99.90;;;;;;5071601;28;20048;-83
2022/10/18 04:37:00;;;;;;;26.63;12.32;;;13.70;99.90;;;;;;5054943;28;20043;-84
2022/10/18 04:39:25;;;;;;;24.15;10.82;;;13.60;99.90;;;;;;5071351;28;20055;-84
2022/10/18 04:41:51;;;;;;;69.85;23.95;;;13.60;99.90;;;;;;5070925;28;20040;-84
2022/10/18 04:44:17;;;;;;;46.67;21.60;;;13.60;99.90;;;;;;5071224;28;20128;-84
2022/10/18 04:46:42;;;;;;;33.72;12.88;;;13.70;99.90;;;;;;5054821;28;20119;-84
2022/10/18 04:49:08;;;;;;;70.65;23.45;;;13.60;99.90;;;;;;5054778;28;20044;-84
2022/10/18 04:51:33;;;;;;;39.38;20.00;;;13.60;99.90;;;;;;5070634;28;20128;-83
2022/10/18 04:53:59;;;;;;;31.35;21.10;;;13.60;99.90;;;;;;5054486;28;20127;-83
2022/10/18 04:56:24;;;;;;;40.80;21.50;;;13.60;99.90;;;;;;5054294;28;20127;-84
2022/10/18 04:58:50;;;;;;;30.95;12.07;;;13.60;99.90;;;;;;5070954;28;20040;-84
2022/10/18 05:01:17;;;;;;;49.22;11.45;;;13.60;99.90;;;;;;5070680;28;20052;-83
2022/10/18 05:03:43;;;;;;;38.38;11.65;;;13.50;99.90;;;;;;5070717;28;20047;-83
2022/10/18 05:06:09;;;;;;;46.20;21.08;;;13.50;99.90;;;;;;5068283;28;20425;-83
2022/10/18 05:08:35;;;;;;;33.03;11.10;;;13.50;99.90;;;;;;5052831;28;20048;-83
2022/10/18 05:11:01;;;;;;;33.25;11.35;;;13.40;99.90;;;;;;5052475;28;20039;-83
2022/10/18 05:13:28;;;;;;;39.05;20.27;;;13.40;99.90;;;;;;5069595;28;20036;-83
2022/10/18 05:15:53;;;;;;;64.45;14.50;;;13.40;99.90;;;;;;5069281;28;20117;-83
2022/10/18 05:18:19;;;;;;;42.78;12.07;;;13.40;99.90;;;;;;5069397;28;20083;-83
2022/10/18 05:20:45;;;;;;;104.60;25.23;;;13.30;99.90;;;;;;5052261;28;20045;-83
2022/10/18 05:23:11;;;;;;;51.85;13.55;;;13.30;99.90;;;;;;5069127;28;20044;-83
2022/10/18 05:25:41;;;;;;;37.17;11.57;;;13.30;99.90;;;;;;5069527;28;20043;-83
2022/10/18 05:28:07;;;;;;;59.30;21.48;;;13.20;99.90;;;;;;5069298;28;20060;-83
2022/10/18 05:30:33;;;;;;;100.43;25.40;;;13.30;99.90;;;;;;5052487;28;20040;-83
2022/10/18 05:32:58;;;;;;;49.42;12.45;;;13.30;99.90;;;;;;5052449;28;20044;-83
2022/10/18 05:35:24;;;;;;;69.70;13.85;;;13.30;99.90;;;;;;5069262;28;20045;-83
2022/10/18 05:37:50;;;;;;;77.88;15.48;;;13.20;99.90;;;;;;5069517;28;20047;-83
2022/10/18 05:40:15;;;;;;;52.90;14.32;;;13.20;99.90;;;;;;5052249;28;20040;-83
2022/10/18 05:42:41;;;;;;;121.05;25.50;;;13.20;99.90;;;;;;5069030;28;20047;-83
2022/10/18 05:45:07;;;;;;;53.22;13.48;;;13.20;99.90;;;;;;5052690;28;20032;-83
2022/10/18 05:47:32;;;;;;;34.65;11.75;;;13.20;99.90;;;;;;5069628;28;20498;-83
2022/10/18 05:49:58;;;;;;;58.97;22.33;;;13.20;99.90;;;;;;5069044;28;20049;-83
2022/10/18 05:52:23;;;;;;;27.65;11.95;;;13.20;99.90;;;;;;5068812;28;20040;-83
2022/10/18 05:54:49;;;;;;;29.60;10.55;;;13.20;99.90;;;;;;5069721;28;20076;-83
2022/10/18 05:57:14;;;;;;;35.90;13.13;;;13.20;99.90;;;;;;5069378;28;20048;-83
2022/10/18 05:59:40;;;;;;;24.70;10.98;;;13.20;99.90;;;;;;5051846;28;20051;-83
2022/10/18 06:02:07;;;;;;;25.05;12.20;;;13.20;99.90;;;;;;5051703;28;20089;-83
2022/10/18 06:04:33;;;;;;;26.42;11.32;;;13.20;99.90;;;;;;5052339;28;20037;-83
2022/10/18 06:06:59;;;;;;;26.13;20.23;;;13.10;99.90;;;;;;5052310;28;20072;-83
2022/10/18 06:09:24;;;;;;;21.98;19.55;;;13.20;99.90;;;;;;5069065;28;20079;-83
2022/10/18 06:11:50;;;;;;;21.27;19.10;;;13.30;99.90;;;;;;5068398;28;20150;-83
2022/10/18 06:14:16;;;;;;;18.80;9.57;;;13.30;99.90;;;;;;5052643;28;20122;-83
2022/10/18 06:16:41;;;;;;;15.70;8.55;;;13.30;99.90;;;;;;5073011;28;20037;-83
2022/10/18 06:19:07;;;;;;;29.95;17.35;;;13.20;99.90;;;;;;5072991;28;20032;-83
2022/10/18 06:21:32;;;;;;;52.33;18.05;;;13.20;99.90;;;;;;5055849;28;20043;-83
2022/10/18 06:23:58;;;;;;;18.33;8.70;;;13.20;99.90;;;;;;5073119;28;20052;-83
2022/10/18 06:26:25;;;;;;;17.83;8.15;;;13.10;99.90;;;;;;5073268;28;20033;-83
2022/10/18 06:28:51;;;;;;;63.15;18.77;;;13.00;99.90;;;;;;5056322;28;20032;-83
2022/10/18 06:31:17;;;;;;;43.30;11.40;;;13.00;99.90;;;;;;5055935;28;20047;-83
2022/10/18 06:33:44;;;;;;;57.25;9.48;;;12.90;99.90;;;;;;5072968;28;20044;-83
2022/10/18 06:36:14;;;;;;;39.05;9.52;;;12.80;99.90;;;;;;5072783;28;20055;-83
2022/10/18 06:38:40;;;;;;;81.18;18.48;;;12.70;99.90;;;;;;5055650;28;20040;-83
2022/10/18 06:41:06;;;;;;;49.83;9.77;;;12.80;99.90;;;;;;5055581;28;20036;-83
2022/10/18 06:43:32;;;;;;;56.95;10.45;;;12.70;99.90;;;;;;5072975;28;20041;-83
2022/10/18 06:46:01;;;;;;;70.28;10.48;;;12.60;99.90;;;;;;5072902;28;20037;-83
2022/10/18 06:48:26;;;;;;;74.50;10.02;;;12.60;99.90;;;;;;5072889;28;20047;-83
2022/10/18 06:51:00;;;;;;;66.82;10.40;;;12.60;99.90;;;;;;5055380;28;20040;-83
2022/10/18 06:53:28;;;;;;;87.82;17.90;;;12.50;99.90;;;;;;5055921;28;20036;-83
2022/10/18 06:56:01;;;;;;;99.10;10.65;;;12.60;99.90;;;;;;5072748;28;20127;-83
2022/10/18 06:58:27;;;;;;;91.75;11.10;;;12.50;99.90;;;;;;5056069;28;20183;-83
2022/10/18 07:00:53;;;;;;;64.50;9.35;;;12.40;99.90;;;;;;5071742;28;20040;-83
2022/10/18 07:03:20;;;;;;;21.88;7.60;;;12.40;99.90;;;;;;5055644;28;20047;-82
2022/10/18 07:05:46;;;;;;;21.45;8.55;;;12.40;99.90;;;;;;5072697;28;20040;-83
2022/10/18 07:08:12;;;;;;;54.80;11.23;;;12.40;99.90;;;;;;5072416;28;20108;-83
2022/10/18 07:10:37;;;;;;;59.60;9.45;;;12.50;99.90;;;;;;5072039;28;20509;-83
2022/10/18 07:13:03;;;;;;;27.20;7.80;;;12.50;99.90;;;;;;5071844;28;20052;-83
2022/10/18 07:15:28;;;;;;;23.88;7.93;;;12.50;99.90;;;;;;5071925;28;20048;-83
2022/10/18 07:17:54;;;;;;;60.95;10.27;;;12.50;99.90;;;;;;5072388;28;20047;-83
2022/10/18 07:20:19;;;;;;;48.85;9.70;;;12.50;99.90;;;;;;5055153;28;20044;-83
2022/10/18 07:22:45;;;;;;;49.90;17.13;;;12.50;99.90;;;;;;5071753;28;20128;-83
2022/10/18 07:25:11;;;;;;;54.33;9.05;;;12.60;99.90;;;;;;5072132;28;20036;-83
2022/10/18 07:27:38;;;;;;;32.00;7.80;;;12.60;99.90;;;;;;5053828;28;20480;-83
2022/10/18 07:30:05;;;;;;;48.47;8.57;;;12.60;99.90;;;;;;5055172;28;20036;-83
2022/10/18 07:32:31;;;;;;;86.03;16.23;;;12.60;99.90;;;;;;5054947;28;20557;-83
2022/10/18 07:34:57;;;;;;;41.47;9.18;;;12.70;99.90;;;;;;5072186;28;20127;-83
2022/10/18 07:37:22;;;;;;;66.35;15.18;;;12.70;99.90;;;;;;5071928;28;20498;-83
2022/10/18 07:39:48;;;;;;;75.00;9.57;;;12.80;99.90;;;;;;5055028;28;20044;-83
2022/10/18 07:42:13;;;;;;;48.17;15.93;;;12.70;99.90;;;;;;5054443;28;20044;-83
2022/10/18 07:44:39;;;;;;;39.65;8.45;;;12.70;99.90;;;;;;5071998;28;20044;-83
2022/10/18 07:47:04;;;;;;;42.35;7.95;;;12.70;99.90;;;;;;5071685;28;20440;-83
2022/10/18 07:49:30;;;;;;;48.90;9.18;;;12.70;99.90;;;;;;5071626;28;20483;-83
2022/10/18 07:51:55;;;;;;;29.00;8.10;;;12.70;99.90;;;;;;5070943;28;20044;-83
2022/10/18 07:54:21;;;;;;;33.45;14.88;;;12.70;99.90;;;;;;5071499;28;20082;-83
2022/10/18 07:56:47;;;;;;;58.83;8.60;;;12.80;99.90;;;;;;5072636;28;20080;-83
2022/10/18 07:59:12;;;;;;;53.33;8.80;;;12.80;99.90;;;;;;5072541;28;20669;-83
2022/10/18 08:01:38;;;;;;;98.45;9.85;;;12.80;99.90;;;;;;5053669;28;20070;-83
2022/10/18 08:04:04;;;;;;;47.08;14.73;;;12.70;99.90;;;;;;5053589;28;20121;-83
2022/10/18 08:06:29;;;;;;;42.72;8.48;;;12.80;99.90;;;;;;5069784;28;20489;-84
2022/10/18 08:08:55;;;;;;;48.92;8.70;;;12.80;99.90;;;;;;5070996;28;20502;-83
2022/10/18 08:11:23;;;;;;;63.28;10.27;;;12.80;99.90;;;;;;5071598;28;20551;-83
2022/10/18 08:13:49;;;;;;;79.20;11.38;;;12.80;99.90;;;;;;5055228;28;20040;-83
2022/10/18 08:16:26;;;;;;;49.70;10.30;;;12.80;99.90;;;;;;5055098;28;20040;-83
2022/10/18 08:18:52;;;;;;;73.75;15.07;;;12.80;99.90;;;;;;5055228;28;20044;-83
2022/10/18 08:21:19;;;;;;;68.15;8.18;;;12.90;99.90;;;;;;5070314;28;20048;-83
2022/10/18 08:23:46;;;;;;;71.47;10.43;;;12.90;99.90;;;;;;5053111;28;20512;-83
2022/10/18 08:26:14;;;;;;;53.28;9.25;;;12.90;99.90;;;;;;5053516;28;20045;-83
2022/10/18 08:28:39;;;;;;;78.53;12.65;;;12.90;99.90;;;;;;5070941;28;20082;-83
2022/10/18 08:31:16;;;;;;;86.25;18.05;;;12.90;99.90;;;;;;5053464;28;20072;-83
2022/10/18 08:33:43;;;;;;;24.85;8.23;;;13.00;99.90;;;;;;5054348;28;20055;-83
2022/10/18 08:36:11;;;;;;;29.45;8.77;;;13.00;99.90;;;;;;5071130;28;20040;-83
2022/10/18 08:38:39;;;;;;;23.80;8.30;;;13.00;99.90;;;;;;5070281;28;20044;-84
2022/10/18 08:41:29;;;;;;;53.63;15.90;;;13.00;99.90;;;;;;5070535;28;20049;-83
2022/10/18 08:44:06;;;;;;;33.92;16.85;;;13.10;99.90;;;;;;5069392;28;20037;-84
2022/10/18 08:46:34;;;;;;;30.50;9.55;;;13.20;99.90;;;;;;5052402;28;20616;-83
2022/10/18 08:49:01;;;;;;;33.63;9.77;;;13.20;99.90;;;;;;5053254;28;20051;-83
2022/10/18 08:51:38;;;;;;;26.55;10.90;;;13.10;99.90;;;;;;5069845;28;20037;-83
2022/10/18 08:54:11;;;;;;;22.75;9.80;;;13.20;99.90;;;;;;5053550;28;20040;-83
2022/10/18 08:56:40;;;;;;;19.75;7.85;;;13.20;99.90;;;;;;5070522;28;20433;-83
2022/10/18 08:59:10;;;;;;;23.75;13.95;;;13.20;99.90;;;;;;5069775;28;20158;-84
2022/10/18 09:02:14;;;;;;;18.48;7.57;;;13.20;99.90;;;;;;5052475;28;20041;-83
2022/10/18 09:04:59;;;;;;;15.20;7.15;;;13.20;99.90;;;;;;5068553;28;20391;-83
2022/10/18 09:07:58;;;;;;;17.75;8.07;;;13.20;99.90;;;;;;5069831;28;20547;-83
2022/10/18 09:10:56;;;;;;;15.55;8.98;;;13.20;99.90;;;;;;5070127;28;20052;-83
2022/10/18 09:13:37;;;;;;;13.70;8.52;;;13.20;99.90;;;;;;5053044;28;20123;-83
2022/10/18 09:16:12;;;;;;;15.07;8.45;;;13.20;99.90;;;;;;5069371;28;20077;-83
2022/10/18 09:18:53;;;;;;;17.55;9.32;;;13.30;99.90;;;;;;5070174;28;20076;-83
2022/10/18 09:21:34;;;;;;;23.10;16.23;;;13.30;99.90;;;;;;5052897;28;20123;-83
2022/10/18 09:24:17;;;;;;;18.77;10.68;;;13.40;99.90;;;;;;5069358;28;20150;-83
2022/10/18 09:26:45;;;;;;;18.25;8.85;;;13.50;99.90;;;;;;5052591;28;20115;-84
2022/10/18 09:29:30;;;;;;;22.35;16.45;;;13.50;99.90;;;;;;5053003;28;20522;-83
2022/10/18 09:32:13;;;;;;;23.38;16.88;;;13.70;99.90;;;;;;5052844;28;20417;-83
2022/10/18 09:34:54;;;;;;;19.02;11.40;;;13.80;99.90;;;;;;5069705;28;20044;-83
2022/10/18 09:37:21;;;;;;;17.15;8.82;;;13.80;99.90;;;;;;5053585;28;20063;-83
2022/10/18 09:39:49;;;;;;;18.08;14.95;;;13.90;99.90;;;;;;5053412;28;20173;-83
2022/10/18 09:42:29;;;;;;;17.42;9.68;;;14.00;99.90;;;;;;5052965;28;20410;-83
2022/10/18 09:45:05;;;;;;;14.85;9.07;;;14.00;99.90;;;;;;5069244;28;20448;-84
2022/10/18 09:47:59;;;;;;;17.48;9.68;;;14.00;99.90;;;;;;5066792;28;20046;-84
2022/10/18 09:50:38;;;;;;;20.55;14.50;;;14.10;99.90;;;;;;5068329;28;20048;-83
2022/10/18 09:53:16;;;;;;;17.85;9.55;;;14.20;99.90;;;;;;5052590;28;20032;-83
2022/10/18 09:56:09;;;;;;;17.95;13.52;;;14.30;99.90;;;;;;5070138;28;20410;-83
2022/10/18 09:58:46;;;;;;;16.98;13.05;;;14.30;99.90;;;;;;5069928;28;20036;-84
2022/10/18 10:01:17;;;;;;;13.75;7.55;;;14.40;99.90;;;;;;5069412;28;20576;-84
2022/10/18 10:03:42;;;;;;;15.50;8.80;;;14.40;99.90;;;;;;5068114;28;20372;-83
2022/10/18 10:06:11;;;;;;;18.20;11.00;;;14.40;99.90;;;;;;5068875;28;20504;-83
2022/10/18 10:08:40;;;;;;;14.57;7.30;;;14.50;99.90;;;;;;5052144;28;20036;-83
2022/10/18 10:11:45;;;;;;;15.63;11.10;;;14.60;99.90;;;;;;5052268;28;20068;-83
2022/10/18 10:14:22;;;;;;;15.13;10.45;;;14.70;99.90;;;;;;5052209;28;20048;-83
2022/10/18 10:16:55;;;;;;;18.27;10.65;;;14.80;99.90;;;;;;5053319;28;20045;-83
2022/10/18 10:19:35;;;;;;;14.35;7.65;;;14.90;99.90;;;;;;5069830;28;20076;-83
2022/10/18 10:22:06;;;;;;;20.50;11.10;;;14.90;99.90;;;;;;5069321;28;20477;-83
2022/10/18 10:24:48;;;;;;;18.10;10.73;;;15.00;99.90;;;;;;5051752;28;20036;-83
2022/10/18 10:27:19;;;;;;;19.00;7.20;;;15.20;99.90;;;;;;5067247;28;20608;-83
2022/10/18 10:29:44;;;;;;;17.45;9.77;;;15.10;99.90;;;;;;5068519;28;20040;-84
2022/10/18 10:32:12;;;;;;;17.15;10.68;;;15.30;99.90;;;;;;5051455;28;20086;-84
2022/10/18 10:34:39;;;;;;;16.15;9.68;;;15.40;99.90;;;;;;5069282;28;20036;-83
2022/10/18 10:37:23;;;;;;;13.35;6.78;;;15.50;99.90;;;;;;5069306;28;20436;-84
2022/10/18 10:40:16;;;;;;;15.65;9.02;;;15.60;99.90;;;;;;5052618;28;20397;-83
2022/10/18 10:43:14;;;;;;;14.75;6.97;;;15.70;99.90;;;;;;5068725;28;20131;-83
2022/10/18 10:46:07;;;;;;;16.10;8.20;;;15.80;99.90;;;;;;5051921;28;20040;-84
2022/10/18 10:48:54;;;;;;;14.40;5.47;;;15.90;99.90;;;;;;5051790;28;20242;-83
2022/10/18 10:51:32;;;;;;;16.20;6.40;;;15.90;99.90;;;;;;5068668;28;20041;-84
2022/10/18 10:54:12;;;;;;;13.32;4.45;;;16.10;99.90;;;;;;5052085;28;20090;-83
2022/10/18 10:57:01;;;;;;;14.82;4.20;;;16.20;99.90;;;;;;5069468;28;20440;-84
2022/10/18 10:59:39;;;;;;;15.73;5.50;;;16.20;99.90;;;;;;5052657;28;20497;-84
2022/10/18 11:02:22;;;;;;;14.13;4.30;;;16.30;99.90;;;;;;5071297;28;20037;-84
2022/10/18 11:04:53;;;;;;;16.15;4.40;;;16.40;99.90;;;;;;5072084;28;20054;-84
2022/10/18 11:07:42;;;;;;;12.88;4.10;;;16.50;99.90;;;;;;5072156;28;20490;-84
2022/10/18 11:10:10;;;;;;;14.90;4.10;;;16.50;99.90;;;;;;5055164;28;20044;-84
2022/10/18 11:12:38;;;;;;;12.63;3.30;;;16.60;99.90;;;;;;5054599;28;20494;-84
2022/10/18 11:15:19;;;;;;;11.25;3.45;;;16.60;99.90;;;;;;5055810;28;20575;-84
2022/10/18 11:18:03;;;;;;;11.50;3.05;;;16.80;99.90;;;;;;5072788;28;20071;-84
2022/10/18 11:20:42;;;;;;;9.60;2.38;;;17.00;99.90;;;;;;5072893;28;20511;-83
2022/10/18 11:23:15;;;;;;;12.13;3.42;;;17.00;99.90;;;;;;5072543;28;20406;-84
2022/10/18 11:26:05;;;;;;;12.35;3.03;;;17.10;99.90;;;;;;5073105;28;20036;-83
2022/10/18 11:28:55;;;;;;;11.98;3.00;;;17.30;99.90;;;;;;5072695;28;20555;-84
2022/10/18 11:31:37;;;;;;;10.25;2.15;;;17.40;99.90;;;;;;5072584;28;20113;-83
2022/10/18 11:34:24;;;;;;;10.95;2.40;;;17.40;99.90;;;;;;5073961;28;20406;-84
2022/10/18 11:37:22;;;;;;;12.63;2.63;;;17.40;99.90;;;;;;5072553;28;20056;-84
2022/10/18 11:40:04;;;;;;;12.27;2.22;;;17.30;99.90;;;;;;5072299;28;20094;-83
2022/10/18 11:42:50;;;;;;;12.38;2.33;;;17.40;99.90;;;;;;5071886;28;20040;-83
2022/10/18 11:45:46;;;;;;;13.60;2.53;;;17.50;99.90;;;;;;5055707;28;20033;-83
2022/10/18 11:48:33;;;;;;;12.32;2.40;;;17.60;99.90;;;;;;5051704;28;20064;-84
2022/10/18 11:51:27;;;;;;;11.05;2.33;;;17.80;99.90;;;;;;5035280;28;20033;-83
2022/10/18 11:54:13;;;;;;;13.98;3.00;;;18.00;99.90;;;;;;5046051;28;20040;-84
2022/10/18 11:56:57;;;;;;;14.85;2.90;;;18.10;99.90;;;;;;5055380;28;20078;-84
2022/10/18 11:59:45;;;;;;;13.50;2.58;;;18.30;99.90;;;;;;5071938;28;20409;-84
2022/10/18 12:02:32;;;;;;;9.65;2.30;;;18.60;99.90;;;;;;5055101;28;20040;-84
2022/10/18 12:05:01;;;;;;;14.52;2.60;;;18.70;99.90;;;;;;5072319;28;20040;-84
2022/10/18 12:07:34;;;;;;;11.73;2.08;;;18.90;99.90;;;;;;5055403;28;20040;-84
2022/10/18 12:10:02;;;;;;;10.75;2.15;;;19.00;99.90;;;;;;5071838;28;20558;-84
2022/10/18 12:12:45;;;;;;;12.70;2.33;;;19.20;99.90;;;;;;5070837;28;20397;-84
2022/10/18 12:15:20;;;;;;;12.55;2.72;;;19.40;99.90;;;;;;5055236;28;20051;-84
2022/10/18 12:17:51;;;;;;;10.57;2.10;;;19.40;99.90;;;;;;5072052;28;20041;-84
2022/10/18 12:20:28;;;;;;;12.35;2.78;;;19.30;99.90;;;;;;5071811;28;20128;-84
2022/10/18 12:23:05;;;;;;;12.05;2.20;;;19.30;99.90;;;;;;5071556;28;20033;-84
2022/10/18 12:25:37;;;;;;;11.48;2.40;;;19.30;99.90;;;;;;5071587;28;20036;-84
2022/10/18 12:28:45;;;;;;;10.63;2.38;;;19.40;99.90;;;;;;5071553;28;20044;-84
2022/10/18 12:31:19;;;;;;;12.32;2.42;;;19.50;99.90;;;;;;5031302;28;20052;-84
2022/10/18 12:33:52;;;;;;;9.98;2.28;;;19.60;99.90;;;;;;5054982;28;20044;-84
2022/10/18 12:36:36;;;;;;;10.13;1.92;;;19.60;99.90;;;;;;5054698;28;20052;-84
2022/10/18 12:39:05;;;;;;;9.55;1.90;;;19.70;99.90;;;;;;5051558;28;20040;-84
2022/10/18 12:41:33;;;;;;;11.18;2.25;;;19.90;99.90;;;;;;5069261;28;20496;-84
2022/10/18 12:44:05;;;;;;;12.35;2.42;;;20.10;99.90;;;;;;5053714;28;20040;-84
2022/10/18 12:46:50;;;;;;;12.32;2.92;;;20.30;99.90;;;;;;5070096;28;20046;-84
2022/10/18 12:49:23;;;;;;;11.52;2.33;;;21.10;99.90;;;;;;5053553;28;20094;-84
2022/10/18 12:51:55;;;;;;;9.07;2.13;;;22.20;99.90;;;;;;5069950;28;20105;-84